Kaibeto, Arizona
Current Conditions -  °F | °C
As of 6:53 AM on Saturday 25 Oct 2014 (Local Time) from KPGA Reporting Station
Clear Clear  
Wind Chill: 55°   Ceiling: Unl
Heat Index: 55°   Visibility: 10mi
Dew Point: 33°   Wind: 5mph
Humidity: 43%   Direction: 260°W
Pressure: 30.2"   Gusts: NA
Location:  36.4905°N, 111.31°W
Report Text: KPGA 251253Z AUTO 26004KT 10SM CLR 13/01 A3020 RMK AO2 SLP185 T01280006
Loading
Personal Weather Stations






























Interactive Weather Map
Tropical Storm Tracking
New forecast layout! Learn more

10-Day Weather Forecast

Advertisements
Track Severe Weather on mobile